createdAt,value
2017-12-23T00:01:24.530Z,40.43
2017-12-23T00:03:51.990Z,41.93
2017-12-23T00:06:19.451Z,35.23
2017-12-23T00:08:46.906Z,29.40
2017-12-23T00:11:14.383Z,34.80
2017-12-23T00:13:41.830Z,33.77
2017-12-23T00:16:09.297Z,27.67
2017-12-23T00:18:36.747Z,31.20
2017-12-23T00:21:04.981Z,27.87
2017-12-23T00:23:33.201Z,37.27
2017-12-23T00:26:01.434Z,35.00
2017-12-23T00:28:28.894Z,35.13
2017-12-23T00:30:56.362Z,33.13
2017-12-23T00:33:23.830Z,38.33
2017-12-23T00:35:51.287Z,38.80
2017-12-23T00:38:18.738Z,39.37
2017-12-23T00:40:46.207Z,34.27
2017-12-23T00:43:13.675Z,34.60
2017-12-23T00:45:41.899Z,38.73
2017-12-23T00:48:09.371Z,39.67
2017-12-23T00:50:36.843Z,35.50
2017-12-23T00:53:04.286Z,51.07
2017-12-23T00:55:31.761Z,33.40
2017-12-23T00:57:59.229Z,46.97
2017-12-23T01:00:26.691Z,33.83
2017-12-23T01:02:54.150Z,43.90
2017-12-23T01:05:22.377Z,45.07
2017-12-23T01:07:49.838Z,54.20
2017-12-23T01:10:17.315Z,57.07
2017-12-23T01:12:44.770Z,49.90
2017-12-23T01:15:12.236Z,68.80
2017-12-23T01:17:39.697Z,59.53
2017-12-23T01:20:07.162Z,43.97
2017-12-23T01:22:34.622Z,64.73
2017-12-23T01:25:02.097Z,65.57
2017-12-23T01:27:30.323Z,51.90
2017-12-23T01:29:57.785Z,52.87
2017-12-23T01:32:25.249Z,56.43
2017-12-23T01:34:52.702Z,74.33
2017-12-23T01:37:20.157Z,58.40
2017-12-23T01:39:47.639Z,69.13
2017-12-23T01:42:15.108Z,61.10
2017-12-23T01:44:42.563Z,61.97
2017-12-23T01:47:10.028Z,64.17
2017-12-23T01:49:38.246Z,56.90
2017-12-23T01:52:05.707Z,69.37
2017-12-23T01:54:33.188Z,65.10
2017-12-23T01:57:00.643Z,68.30
2017-12-23T01:59:28.099Z,61.70
2017-12-23T02:01:55.582Z,53.53
2017-12-23T02:04:23.814Z,53.47
2017-12-23T02:06:51.267Z,47.50
2017-12-23T02:09:18.730Z,53.70
2017-12-23T02:11:46.199Z,48.90
2017-12-23T02:14:13.654Z,55.57
2017-12-23T02:16:41.130Z,45.53
2017-12-23T02:19:08.602Z,35.60
2017-12-23T02:21:36.827Z,36.17
2017-12-23T02:24:04.300Z,42.57
2017-12-23T02:26:31.754Z,42.73
2017-12-23T02:28:59.210Z,45.73
2017-12-23T02:31:26.674Z,38.30
2017-12-23T02:33:54.126Z,43.70
2017-12-23T02:36:21.592Z,44.90
2017-12-23T02:38:49.059Z,45.03
2017-12-23T02:41:16.517Z,30.87
2017-12-23T02:43:43.970Z,39.40
2017-12-23T02:46:11.434Z,33.70
2017-12-23T02:48:38.891Z,35.00
2017-12-23T02:51:06.343Z,33.77
2017-12-23T02:53:33.842Z,34.03
2017-12-23T02:56:01.286Z,35.10
2017-12-23T02:58:28.748Z,33.87
2017-12-23T03:00:56.979Z,32.73
2017-12-23T03:03:24.443Z,33.40
2017-12-23T03:05:51.894Z,32.50
2017-12-23T03:08:19.366Z,33.20
2017-12-23T03:10:46.814Z,37.60
2017-12-23T03:13:14.272Z,38.87
2017-12-23T03:15:41.742Z,39.50
2017-12-23T03:18:09.966Z,39.90
2017-12-23T03:20:37.431Z,39.27
2017-12-23T03:23:04.909Z,50.07
2017-12-23T03:25:32.350Z,48.70
2017-12-23T03:28:00.578Z,53.57
2017-12-23T03:30:28.832Z,51.83
2017-12-23T03:32:56.286Z,52.10
2017-12-23T03:35:23.743Z,50.53
2017-12-23T03:37:51.215Z,49.63
2017-12-23T03:40:19.434Z,53.60
2017-12-23T03:42:46.890Z,59.93
2017-12-23T03:45:14.358Z,53.30
2017-12-23T03:47:41.815Z,62.33
2017-12-23T03:50:09.270Z,61.40
2017-12-23T03:52:36.744Z,60.93
2017-12-23T03:55:04.207Z,49.73
2017-12-23T03:57:31.666Z,48.03
2017-12-23T03:59:59.137Z,50.70
2017-12-23T04:02:27.351Z,46.60
2017-12-23T04:04:54.802Z,44.60
2017-12-23T04:07:22.274Z,38.33
2017-12-23T04:09:49.738Z,46.73
2017-12-23T04:12:17.189Z,45.20
2017-12-23T04:14:44.667Z,43.00
2017-12-23T04:17:12.118Z,44.60
2017-12-23T04:19:39.579Z,48.77
2017-12-23T04:22:07.048Z,48.20
2017-12-23T04:24:34.512Z,42.10
2017-12-23T04:27:02.733Z,38.10
2017-12-23T04:29:30.207Z,39.90
2017-12-23T04:31:57.658Z,39.00
2017-12-23T04:34:25.110Z,32.07
2017-12-23T04:36:52.576Z,30.47
2017-12-23T04:39:20.028Z,34.80
2017-12-23T04:41:47.483Z,30.67
2017-12-23T04:44:14.954Z,26.90
2017-12-23T04:46:42.415Z,31.30
2017-12-23T04:49:09.877Z,24.00
2017-12-23T04:51:37.334Z,28.03
2017-12-23T04:54:04.791Z,31.60
2017-12-23T04:56:32.244Z,23.87
2017-12-23T04:58:59.706Z,22.63
2017-12-23T05:01:27.935Z,29.93
2017-12-23T05:03:55.396Z,33.93
2017-12-23T05:06:22.864Z,29.90
2017-12-23T05:08:50.323Z,36.27
2017-12-23T05:11:17.778Z,30.80
2017-12-23T05:13:45.258Z,30.80
2017-12-23T05:16:12.710Z,31.30
2017-12-23T05:18:40.167Z,32.53
2017-12-23T05:21:08.435Z,35.50
2017-12-23T05:23:35.899Z,36.47
2017-12-23T05:26:03.367Z,39.53
2017-12-23T05:28:31.598Z,41.37
2017-12-23T05:30:59.059Z,39.33
2017-12-23T05:33:26.514Z,40.80
2017-12-23T05:35:53.987Z,45.23
2017-12-23T05:38:21.459Z,42.50
2017-12-23T05:40:48.933Z,42.00
2017-12-23T05:43:17.170Z,50.37
2017-12-23T05:45:44.635Z,41.33
2017-12-23T05:48:12.095Z,45.83
2017-12-23T05:50:39.562Z,42.53
2017-12-23T05:53:07.777Z,37.47
2017-12-23T05:55:35.247Z,36.40
2017-12-23T05:58:02.712Z,40.00
2017-12-23T06:00:30.170Z,33.60
2017-12-23T06:02:57.639Z,36.13
2017-12-23T06:05:25.102Z,45.17
2017-12-23T06:07:52.563Z,43.40
2017-12-23T06:10:20.019Z,39.00
2017-12-23T06:12:47.492Z,38.70
2017-12-23T06:15:15.710Z,43.17
2017-12-23T06:17:43.172Z,51.67
2017-12-23T06:20:10.639Z,45.53
2017-12-23T06:22:38.093Z,40.83
2017-12-23T06:25:05.568Z,41.73
2017-12-23T06:27:33.040Z,40.80
2017-12-23T06:30:00.493Z,41.57
2017-12-23T06:32:27.955Z,40.10
2017-12-23T06:34:55.463Z,42.13
2017-12-23T06:37:22.919Z,39.57
2017-12-23T06:39:50.378Z,38.03
2017-12-23T06:42:17.851Z,34.57
2017-12-23T06:44:45.304Z,37.27
2017-12-23T06:47:12.759Z,31.20
2017-12-23T06:49:40.230Z,28.33
2017-12-23T06:52:07.683Z,22.07
2017-12-23T06:54:35.907Z,24.63
2017-12-23T06:57:04.145Z,31.70
2017-12-23T06:59:31.589Z,20.40
2017-12-23T07:01:59.051Z,24.70
2017-12-23T07:04:26.527Z,25.00
2017-12-23T07:06:53.983Z,24.80
2017-12-23T07:09:21.439Z,19.73
2017-12-23T07:11:48.909Z,18.60
2017-12-23T07:14:17.134Z,17.10
2017-12-23T07:16:44.596Z,21.37
2017-12-23T07:19:12.071Z,20.43
2017-12-23T07:21:39.523Z,17.20
2017-12-23T07:24:06.974Z,17.53
2017-12-23T07:26:34.450Z,15.53
2017-12-23T07:29:01.955Z,22.73
2017-12-23T07:31:29.418Z,16.00
2017-12-23T07:33:56.878Z,18.33
2017-12-23T07:36:24.338Z,20.00
2017-12-23T07:38:51.801Z,19.80
2017-12-23T07:41:19.263Z,20.97
2017-12-23T07:43:47.495Z,20.20
2017-12-23T07:46:15.722Z,21.20
2017-12-23T07:48:43.200Z,17.10
2017-12-23T07:51:10.658Z,15.80
2017-12-23T07:53:38.118Z,16.40
2017-12-23T07:56:05.587Z,13.80
2017-12-23T07:58:33.802Z,14.77
2017-12-23T08:01:01.265Z,15.87
2017-12-23T08:03:28.740Z,15.53
2017-12-23T08:05:56.187Z,14.57
2017-12-23T08:08:23.646Z,12.93
2017-12-23T08:10:51.146Z,12.43
2017-12-23T08:13:19.368Z,11.83
2017-12-23T08:15:46.839Z,13.00
2017-12-23T08:18:14.296Z,9.63
2017-12-23T08:20:41.742Z,11.33
2017-12-23T08:23:09.203Z,13.20
2017-12-23T08:25:36.675Z,13.30
2017-12-23T08:28:04.135Z,15.33
2017-12-23T08:30:31.582Z,9.93
2017-12-23T08:32:59.055Z,15.07
2017-12-23T08:35:26.533Z,11.73
2017-12-23T08:37:53.982Z,11.97
2017-12-23T08:40:21.459Z,15.17
2017-12-23T08:42:49.687Z,11.70
2017-12-23T08:45:17.143Z,12.90
2017-12-23T08:47:44.618Z,10.60
2017-12-23T08:50:12.071Z,12.27
2017-12-23T08:52:39.536Z,12.63
2017-12-23T08:55:07.002Z,14.03
2017-12-23T08:57:35.219Z,12.10
2017-12-23T09:00:02.679Z,15.40
2017-12-23T09:02:30.166Z,13.80
2017-12-23T09:04:57.606Z,12.53
2017-12-23T09:07:25.057Z,11.20
2017-12-23T09:09:52.526Z,12.60
2017-12-23T09:12:19.995Z,15.63
2017-12-23T09:14:47.454Z,12.70
2017-12-23T09:17:14.910Z,12.83
2017-12-23T09:19:42.380Z,16.03
2017-12-23T09:22:09.839Z,10.83
2017-12-23T09:24:37.332Z,12.60
2017-12-23T09:27:04.778Z,12.90
2017-12-23T09:29:32.230Z,19.33
2017-12-23T09:32:00.531Z,11.57
2017-12-23T09:34:28.090Z,16.73
2017-12-23T09:36:55.595Z,12.77
2017-12-23T09:39:23.855Z,17.90
2017-12-23T09:41:51.310Z,13.50
2017-12-23T09:44:18.763Z,17.13
2017-12-23T09:46:46.239Z,16.47
2017-12-23T09:49:13.696Z,17.73
2017-12-23T09:51:41.158Z,22.70
2017-12-23T09:54:08.634Z,22.50
2017-12-23T09:56:36.855Z,20.73
2017-12-23T09:59:04.314Z,18.90
2017-12-23T10:01:31.783Z,23.70
2017-12-23T10:03:59.244Z,23.83
2017-12-23T10:06:26.694Z,22.73
2017-12-23T10:08:54.183Z,22.77
2017-12-23T10:11:22.407Z,36.20
2017-12-23T10:13:49.866Z,20.93
2017-12-23T10:16:17.334Z,25.53
2017-12-23T10:18:44.795Z,28.00
2017-12-23T10:21:12.251Z,26.83
2017-12-23T10:23:39.723Z,26.37
2017-12-23T10:26:07.179Z,25.97
2017-12-23T10:28:34.641Z,25.47
2017-12-23T10:31:02.108Z,27.43
2017-12-23T10:33:29.567Z,29.83
2017-12-23T10:35:57.790Z,22.20
2017-12-23T10:38:25.254Z,25.47
2017-12-23T10:40:52.702Z,22.97
2017-12-23T10:43:20.163Z,22.23
2017-12-23T10:45:47.640Z,18.90
2017-12-23T10:48:15.119Z,17.17
2017-12-23T10:50:42.574Z,20.93
2017-12-23T10:53:10.055Z,18.23
2017-12-23T10:55:38.284Z,17.57
2017-12-23T10:58:05.743Z,22.07
2017-12-23T11:00:33.210Z,18.43
2017-12-23T11:03:00.675Z,16.53
2017-12-23T11:05:28.131Z,19.27
2017-12-23T11:07:55.602Z,15.73
2017-12-23T11:10:23.823Z,20.27
2017-12-23T11:12:51.278Z,19.63
2017-12-23T11:15:18.759Z,18.30
2017-12-23T11:17:46.211Z,17.73
2017-12-23T11:20:13.675Z,17.43
2017-12-23T11:22:41.145Z,16.50
2017-12-23T11:25:08.603Z,18.90
2017-12-23T11:27:36.054Z,15.90
2017-12-23T11:30:03.530Z,18.33
2017-12-23T11:32:31.747Z,16.27
2017-12-23T11:34:59.203Z,15.83
2017-12-23T11:37:26.682Z,19.10
2017-12-23T11:39:54.144Z,16.43
2017-12-23T11:42:21.590Z,18.00
2017-12-23T11:44:49.061Z,16.07
2017-12-23T11:47:16.510Z,22.20
2017-12-23T11:49:43.967Z,13.20
2017-12-23T11:52:11.438Z,13.93
2017-12-23T11:54:38.902Z,13.10
2017-12-23T11:57:06.349Z,16.27
2017-12-23T11:59:33.818Z,14.87
2017-12-23T12:02:01.283Z,10.83
2017-12-23T12:04:29.524Z,11.23
2017-12-23T12:06:57.158Z,15.30
2017-12-23T12:09:24.611Z,14.53
2017-12-23T12:11:52.072Z,10.87
2017-12-23T12:14:19.547Z,10.80
2017-12-23T12:16:47.020Z,10.73
2017-12-23T12:19:14.467Z,7.07
2017-12-23T12:21:41.936Z,10.10
2017-12-23T12:24:09.393Z,8.60
2017-12-23T12:26:36.840Z,12.30
2017-12-23T12:29:04.300Z,9.03
2017-12-23T12:31:31.746Z,10.67
2017-12-23T12:33:59.202Z,11.90
2017-12-23T12:36:26.677Z,8.50
2017-12-23T12:38:54.157Z,11.60
2017-12-23T12:41:21.611Z,6.83
2017-12-23T12:43:49.846Z,8.97
2017-12-23T12:46:17.306Z,11.33
2017-12-23T12:48:44.764Z,10.77
2017-12-23T12:51:12.232Z,16.90
2017-12-23T12:53:39.683Z,8.77
2017-12-23T12:56:07.139Z,10.23
2017-12-23T12:58:34.606Z,10.37
2017-12-23T13:01:02.071Z,13.87
2017-12-23T13:03:29.519Z,12.47
2017-12-23T13:05:56.995Z,16.20
2017-12-23T13:08:25.219Z,15.00
2017-12-23T13:10:52.669Z,19.07
2017-12-23T13:13:20.148Z,21.30
2017-12-23T13:15:47.609Z,18.40
2017-12-23T13:18:15.062Z,15.90
2017-12-23T13:20:42.535Z,20.80
2017-12-23T13:23:09.999Z,18.43
2017-12-23T13:25:37.463Z,16.93
2017-12-23T13:28:05.701Z,22.73
2017-12-23T13:30:33.166Z,22.57
2017-12-23T13:33:00.622Z,24.17
2017-12-23T13:35:28.124Z,22.80
2017-12-23T13:37:56.350Z,23.27
2017-12-23T13:40:23.806Z,24.00
2017-12-23T13:42:51.282Z,30.30
2017-12-23T13:45:18.738Z,23.33
2017-12-23T13:47:46.195Z,20.73
2017-12-23T13:50:13.670Z,20.73
2017-12-23T13:52:41.899Z,23.40
2017-12-23T13:55:09.365Z,23.93
2017-12-23T13:57:36.826Z,21.53
2017-12-23T14:00:04.294Z,19.10
2017-12-23T14:02:31.737Z,20.03
2017-12-23T14:04:59.212Z,24.57
2017-12-23T14:07:26.662Z,22.80
2017-12-23T14:09:54.124Z,22.80
2017-12-23T14:12:21.587Z,25.03
2017-12-23T14:14:49.034Z,22.33
2017-12-23T14:17:16.499Z,26.80
2017-12-23T14:19:43.971Z,24.60
2017-12-23T14:22:12.197Z,24.30
2017-12-23T14:24:39.651Z,26.13
2017-12-23T14:27:07.127Z,30.63
2017-12-23T14:29:34.584Z,24.10
2017-12-23T14:32:02.044Z,19.70
2017-12-23T14:34:29.514Z,21.20
2017-12-23T14:36:56.972Z,30.03
2017-12-23T14:39:24.435Z,29.03
2017-12-23T14:41:52.683Z,30.10
2017-12-23T14:44:20.139Z,27.37
2017-12-23T14:46:47.599Z,25.33
2017-12-23T14:49:15.063Z,26.27
2017-12-23T14:51:42.519Z,27.03
2017-12-23T14:54:09.976Z,29.07
2017-12-23T14:56:37.449Z,30.87
2017-12-23T14:59:05.754Z,29.30
2017-12-23T15:01:33.222Z,31.83
2017-12-23T15:04:00.680Z,30.63
2017-12-23T15:06:28.155Z,31.00
2017-12-23T15:08:55.606Z,27.33
2017-12-23T15:11:23.083Z,28.27
2017-12-23T15:13:50.545Z,33.37
2017-12-23T15:16:18.006Z,31.83
2017-12-23T15:18:45.472Z,31.50
2017-12-23T15:21:12.927Z,31.47
2017-12-23T15:23:40.386Z,34.00
2017-12-23T15:26:07.860Z,31.17
2017-12-23T15:28:36.082Z,30.53
2017-12-23T15:31:03.543Z,40.07
2017-12-23T15:33:31.014Z,32.40
2017-12-23T15:35:58.458Z,34.20
2017-12-23T15:38:25.914Z,35.10
2017-12-23T15:40:53.396Z,37.60
2017-12-23T15:43:20.850Z,34.23
2017-12-23T15:45:48.310Z,34.77
2017-12-23T15:48:15.803Z,43.33
2017-12-23T15:50:43.258Z,32.07
2017-12-23T15:53:10.714Z,33.47
2017-12-23T15:55:38.188Z,33.97
2017-12-23T15:58:05.652Z,33.37
2017-12-23T16:00:33.106Z,42.20
2017-12-23T16:03:00.600Z,36.33
2017-12-23T16:05:28.058Z,45.43
2017-12-23T16:07:55.521Z,37.53
2017-12-23T16:10:22.988Z,34.33
2017-12-23T16:12:50.446Z,29.10
2017-12-23T16:15:18.666Z,36.73
2017-12-23T16:17:46.143Z,31.73
2017-12-23T16:20:13.611Z,31.33
2017-12-23T16:22:41.063Z,32.20
2017-12-23T16:25:08.543Z,33.22
2017-12-23T16:27:35.991Z,29.53
2017-12-23T16:30:03.442Z,39.20
2017-12-23T16:32:30.911Z,27.87
2017-12-23T16:34:58.371Z,38.07
2017-12-23T16:37:25.826Z,33.70
2017-12-23T16:39:53.286Z,40.60
2017-12-23T16:42:21.506Z,38.33
2017-12-23T16:44:48.975Z,36.00
2017-12-23T16:47:16.443Z,34.40
2017-12-23T16:49:43.905Z,36.70
2017-12-23T16:52:12.354Z,35.13
2017-12-23T16:54:39.831Z,34.80
2017-12-23T16:57:07.289Z,33.03
2017-12-23T16:59:34.778Z,45.87
2017-12-23T17:02:02.233Z,36.50
2017-12-23T17:04:29.700Z,34.43
2017-12-23T17:06:57.919Z,34.40
2017-12-23T17:09:25.398Z,38.37
2017-12-23T17:11:52.854Z,50.13
2017-12-23T17:14:20.305Z,33.20
2017-12-23T17:16:47.787Z,35.80
2017-12-23T17:19:15.238Z,38.47
2017-12-23T17:21:42.703Z,35.33
2017-12-23T17:24:10.184Z,37.03
2017-12-23T17:26:38.406Z,43.03
2017-12-23T17:29:17.770Z,41.87
2017-12-23T17:31:45.228Z,40.53
2017-12-23T17:34:12.683Z,34.93
2017-12-23T17:36:40.159Z,35.97
2017-12-23T17:39:08.378Z,46.27
2017-12-23T17:41:35.845Z,37.00
2017-12-23T17:44:03.303Z,48.10
2017-12-23T17:46:30.759Z,41.70
2017-12-23T17:48:58.223Z,45.83
2017-12-23T17:51:25.764Z,39.13
2017-12-23T17:53:53.224Z,41.97
2017-12-23T17:56:20.674Z,46.47
2017-12-23T17:58:48.150Z,49.23
2017-12-23T18:01:15.608Z,46.47
2017-12-23T18:03:43.068Z,45.83
2017-12-23T18:06:10.538Z,40.97
2017-12-23T18:08:37.994Z,47.10
2017-12-23T18:11:05.455Z,42.37
2017-12-23T18:13:32.915Z,44.20
2017-12-23T18:16:01.139Z,42.37
2017-12-23T18:18:28.597Z,42.40
2017-12-23T18:20:56.071Z,38.27
2017-12-23T18:23:23.586Z,39.63
2017-12-23T18:25:50.995Z,40.27
2017-12-23T18:28:18.469Z,38.50
2017-12-23T18:30:45.914Z,35.03
2017-12-23T18:33:13.372Z,34.93
2017-12-23T18:35:40.847Z,34.73
2017-12-23T18:38:09.058Z,38.73
2017-12-23T18:40:36.520Z,39.33
2017-12-23T18:43:03.987Z,33.60
2017-12-23T18:45:31.439Z,30.17
2017-12-23T18:47:58.908Z,35.07
2017-12-23T18:50:26.367Z,39.77
2017-12-23T18:52:53.828Z,34.30
2017-12-23T18:55:21.282Z,32.63
2017-12-23T18:57:48.767Z,29.03
2017-12-23T19:00:16.232Z,27.70
2017-12-23T19:02:44.450Z,30.63
2017-12-23T19:05:11.923Z,35.30
2017-12-23T19:07:39.384Z,36.70
2017-12-23T19:10:06.843Z,32.77
2017-12-23T19:12:34.322Z,27.70
2017-12-23T19:15:01.792Z,33.23
2017-12-23T19:17:29.246Z,29.70
2017-12-23T19:19:57.519Z,33.83
2017-12-23T19:22:24.975Z,31.17
2017-12-23T19:24:53.206Z,32.90
2017-12-23T19:27:20.672Z,37.53
2017-12-23T19:29:48.135Z,37.43
2017-12-23T19:32:15.595Z,32.47
2017-12-23T19:34:43.070Z,31.97
2017-12-23T19:37:10.529Z,33.70
2017-12-23T19:39:37.982Z,35.80
2017-12-23T19:42:05.451Z,35.17
2017-12-23T19:44:33.679Z,39.20
2017-12-23T19:47:01.131Z,38.10
2017-12-23T19:49:28.616Z,42.97
2017-12-23T19:51:56.072Z,38.63
2017-12-23T19:54:23.532Z,39.63
2017-12-23T19:56:50.997Z,40.67
2017-12-23T19:59:18.456Z,34.23
2017-12-23T20:01:45.911Z,38.83
2017-12-23T20:04:13.391Z,31.17
2017-12-23T20:06:41.620Z,35.53
2017-12-23T20:09:09.079Z,39.83
2017-12-23T20:11:36.576Z,37.13
2017-12-23T20:14:04.798Z,30.20
2017-12-23T20:16:33.047Z,40.27
2017-12-23T20:19:00.516Z,38.13
2017-12-23T20:21:27.976Z,34.27
2017-12-23T20:23:55.443Z,34.37
2017-12-23T20:26:22.911Z,33.00
2017-12-23T20:28:50.363Z,29.30
2017-12-23T20:31:17.828Z,32.43
2017-12-23T20:33:45.302Z,36.27
2017-12-23T20:36:12.754Z,33.47
2017-12-23T20:38:40.210Z,29.10
2017-12-23T20:41:07.691Z,27.63
2017-12-23T20:43:35.915Z,20.13
2017-12-23T20:46:03.373Z,29.10
2017-12-23T20:48:30.839Z,23.10
2017-12-23T20:50:58.296Z,23.47
2017-12-23T20:53:25.826Z,21.13
2017-12-23T20:55:53.287Z,28.50
2017-12-23T20:58:20.759Z,25.90
2017-12-23T21:00:48.222Z,23.17
2017-12-23T21:03:15.699Z,25.40
2017-12-23T21:05:43.157Z,25.33
2017-12-23T21:08:10.606Z,25.63
2017-12-23T21:10:38.079Z,17.97
2017-12-23T21:13:06.302Z,26.93
2017-12-23T21:15:33.783Z,14.77
2017-12-23T21:18:01.250Z,20.77
2017-12-23T21:20:28.712Z,17.93
2017-12-23T21:22:56.183Z,25.00
2017-12-23T21:25:23.642Z,31.00
2017-12-23T21:27:51.862Z,24.80
2017-12-23T21:30:19.318Z,25.10
2017-12-23T21:32:46.794Z,27.50
2017-12-23T21:35:14.261Z,24.27
2017-12-23T21:37:41.706Z,26.50
2017-12-23T21:40:09.184Z,25.77
2017-12-23T21:42:36.650Z,25.43
2017-12-23T21:45:04.116Z,27.80
2017-12-23T21:47:32.359Z,33.70
2017-12-23T21:49:59.806Z,34.50
2017-12-23T21:52:27.282Z,31.77
2017-12-23T21:54:54.749Z,39.33
2017-12-23T21:57:22.198Z,35.03
2017-12-23T21:59:49.664Z,30.70
2017-12-23T22:02:17.142Z,30.53
2017-12-23T22:04:45.354Z,38.03
2017-12-23T22:07:12.820Z,35.37
2017-12-23T22:09:40.288Z,33.37
2017-12-23T22:12:07.742Z,30.77
2017-12-23T22:14:35.206Z,44.03
2017-12-23T22:17:02.669Z,33.43
2017-12-23T22:19:30.122Z,34.97
2017-12-23T22:21:57.592Z,39.00
2017-12-23T22:24:25.063Z,40.40
2017-12-23T22:26:53.288Z,41.93
2017-12-23T22:29:20.746Z,39.03
2017-12-23T22:31:48.218Z,41.20
2017-12-23T22:34:15.665Z,39.97
2017-12-23T22:36:43.132Z,44.57
2017-12-23T22:39:10.612Z,47.30
2017-12-23T22:41:38.068Z,43.80
2017-12-23T22:44:06.306Z,39.53
2017-12-23T22:46:33.801Z,41.27
2017-12-23T22:49:01.257Z,39.23
2017-12-23T22:51:29.479Z,39.10
2017-12-23T22:53:56.951Z,43.83
2017-12-23T22:56:24.403Z,40.07
2017-12-23T22:58:51.850Z,46.07
2017-12-23T23:01:19.327Z,36.97
2017-12-23T23:03:46.783Z,35.73
2017-12-23T23:06:14.239Z,36.87
2017-12-23T23:08:41.715Z,38.97
2017-12-23T23:11:09.166Z,38.77
2017-12-23T23:13:36.622Z,36.20
2017-12-23T23:16:04.132Z,36.07
2017-12-23T23:18:31.554Z,35.77
2017-12-23T23:20:59.006Z,41.83
2017-12-23T23:23:26.474Z,33.87
2017-12-23T23:25:54.699Z,37.20
2017-12-23T23:28:22.924Z,42.47
2017-12-23T23:30:51.158Z,40.17
2017-12-23T23:33:18.622Z,43.00
2017-12-23T23:35:46.073Z,40.77
2017-12-23T23:38:13.574Z,39.77
2017-12-23T23:40:41.791Z,48.00
2017-12-23T23:43:09.247Z,42.23
2017-12-23T23:45:36.719Z,43.07
2017-12-23T23:48:04.167Z,44.17
2017-12-23T23:50:31.623Z,56.37
2017-12-23T23:52:59.863Z,48.23
2017-12-23T23:55:27.339Z,49.87
2017-12-23T23:57:54.799Z,44.97
